Time;durP1;ratioP1;P1;durP2;ratioP2;P2;SDS_P1;SDS_P2;PMS_P1;PMS_P2;Temp;Humidity;BMP_temperature;BMP_pressure;BME280_temperature;BME280_humidity;BME280_pressure;Samples;Min_cycle;Max_cycle;Signal;HPM_P1;HPM_P2
2021/03/19 00:02:14;;;;;;;10.15;8.25;;;;;;;9.85;100.00;102436.42;1766785;79;936849;-74
2021/03/19 00:04:44;;;;;;;10.43;8.00;;;;;;;9.83;100.00;102434.45;1778387;79;934791;-75
2021/03/19 00:07:14;;;;;;;13.00;9.43;;;;;;;9.76;100.00;102422.06;1766897;79;935527;-74
2021/03/19 00:09:44;;;;;;;10.80;6.73;;;;;;;9.81;100.00;102433.83;1778427;79;934666;-75
2021/03/19 00:12:13;;;;;;;9.35;6.72;;;;;;;9.81;100.00;102429.13;1766841;79;936757;-75
2021/03/19 00:14:43;;;;;;;9.47;6.53;;;;;;;9.78;100.00;102431.55;1778363;77;932335;-74
2021/03/19 00:17:13;;;;;;;10.07;6.73;;;;;;;9.76;100.00;102440.09;1766831;79;934493;-74
2021/03/19 00:19:43;;;;;;;9.53;6.50;;;;;;;9.72;100.00;102433.34;1778385;79;934708;-75
2021/03/19 00:22:13;;;;;;;9.73;6.95;;;;;;;9.81;100.00;102432.44;1766996;78;934332;-76
2021/03/19 00:24:42;;;;;;;12.35;7.05;;;;;;;9.77;100.00;102434.02;1778480;79;932498;-75
2021/03/19 00:27:12;;;;;;;12.30;7.20;;;;;;;9.71;100.00;102451.64;1766698;79;937566;-75
2021/03/19 00:29:42;;;;;;;9.07;6.60;;;;;;;9.68;100.00;102452.95;1778414;79;934686;-75
2021/03/19 00:32:12;;;;;;;8.90;6.30;;;;;;;9.59;100.00;102458.55;1766847;79;934540;-74
2021/03/19 00:34:42;;;;;;;8.63;6.07;;;;;;;9.64;100.00;102459.22;1778416;79;932742;-74
2021/03/19 00:37:12;;;;;;;5.30;3.87;;;;;;;9.56;100.00;102461.27;1766883;79;934590;-75
2021/03/19 00:39:42;;;;;;;4.50;4.00;;;;;;;9.54;100.00;102472.31;1778483;79;932460;-74
2021/03/19 00:42:11;;;;;;;4.90;3.40;;;;;;;9.54;100.00;102473.13;1766883;79;934471;-74
2021/03/19 00:44:42;;;;;;;4.10;3.33;;;;;;;9.48;100.00;102473.26;1778419;79;932711;-74
2021/03/19 00:47:12;;;;;;;4.53;3.37;;;;;;;9.54;100.00;102473.70;1766856;79;933411;-74
2021/03/19 00:49:42;;;;;;;5.53;3.73;;;;;;;9.49;100.00;102469.41;1778380;80;932585;-74
2021/03/19 00:52:12;;;;;;;5.03;3.93;;;;;;;9.44;100.00;102472.89;1766913;79;934513;-74
2021/03/19 00:54:43;;;;;;;5.37;3.73;;;;;;;9.50;100.00;102469.15;1778422;79;932337;-74
2021/03/19 00:57:13;;;;;;;3.47;3.12;;;;;;;9.49;100.00;102474.42;1766861;79;934451;-74
2021/03/19 00:59:43;;;;;;;3.97;3.20;;;;;;;9.45;100.00;102480.14;1778368;80;932680;-74
2021/03/19 01:02:13;;;;;;;6.25;4.22;;;;;;;9.51;100.00;102472.77;1766815;79;934676;-74
2021/03/19 01:04:43;;;;;;;5.80;4.63;;;;;;;9.46;100.00;102475.41;1778407;80;932478;-74
2021/03/19 01:07:13;;;;;;;5.55;4.03;;;;;;;9.50;100.00;102480.24;1766806;79;934366;-75
2021/03/19 01:09:43;;;;;;;5.40;3.70;;;;;;;9.38;100.00;102488.23;1778413;80;932572;-75
2021/03/19 01:12:13;;;;;;;3.60;3.17;;;;;;;9.38;100.00;102486.85;1766791;79;934539;-75
2021/03/19 01:14:43;;;;;;;3.80;3.03;;;;;;;9.33;100.00;102496.42;1778311;77;932553;-75
2021/03/19 01:17:13;;;;;;;3.45;3.15;;;;;;;9.30;100.00;102498.29;1766860;79;934541;-76
2021/03/19 01:19:43;;;;;;;4.30;3.53;;;;;;;9.24;100.00;102497.30;1778404;79;932497;-76
2021/03/19 01:22:12;;;;;;;4.45;3.12;;;;;;;9.26;100.00;102502.08;1766909;79;934479;-75
2021/03/19 01:24:42;;;;;;;4.97;3.37;;;;;;;9.24;100.00;102507.00;1778453;79;932530;-75
2021/03/19 01:27:12;;;;;;;4.33;3.00;;;;;;;9.21;100.00;102508.02;1766924;79;933429;-72
2021/03/19 01:29:42;;;;;;;6.10;3.23;;;;;;;9.17;100.00;102510.95;1778406;79;932514;-75
2021/03/19 01:32:11;;;;;;;4.33;3.10;;;;;;;9.17;100.00;102513.20;1766929;79;934417;-75
2021/03/19 01:34:41;;;;;;;4.27;2.93;;;;;;;9.12;100.00;102503.34;1778488;79;932633;-75
2021/03/19 01:37:12;;;;;;;3.98;2.70;;;;;;;9.09;100.00;102503.29;1766838;79;934446;-75
2021/03/19 01:39:41;;;;;;;3.47;2.37;;;;;;;9.11;100.00;102501.69;1778424;80;932555;-75
2021/03/19 01:42:12;;;;;;;4.15;2.92;;;;;;;9.10;100.00;102504.98;1766809;79;934361;-76
2021/03/19 01:45:06;;;;;;;4.50;2.83;;;;;;;9.06;100.00;102502.38;1778424;79;932719;-76
2021/03/19 01:48:11;;;;;;;4.10;2.70;;;;;;;9.07;100.00;102501.28;1778377;79;934460;-76
2021/03/19 01:51:17;;;;;;;3.83;2.10;;;;;;;9.05;100.00;102510.39;1778410;79;934418;-76
2021/03/19 01:54:22;;;;;;;4.73;2.97;;;;;;;9.05;100.00;102506.23;1778380;79;932592;-76
2021/03/19 01:57:27;;;;;;;4.20;2.47;;;;;;;9.08;100.00;102500.20;1778506;79;932556;-75
2021/03/19 02:00:32;;;;;;;3.93;2.70;;;;;;;9.00;100.00;102510.23;1768173;79;934440;-76
2021/03/19 02:03:37;;;;;;;6.08;3.05;;;;;;;9.03;100.00;102515.84;1767340;79;934443;-75
2021/03/19 02:06:42;;;;;;;3.35;2.37;;;;;;;9.03;100.00;102508.91;1766845;79;944179;-75
2021/03/19 02:09:51;;;;;;;5.00;2.67;;;;;;;9.04;100.00;102493.98;1766984;79;934654;-76
2021/03/19 02:12:56;;;;;;;4.20;2.70;;;;;;;9.04;100.00;102482.89;1753339;79;934609;-75
2021/03/19 02:16:01;;;;;;;3.70;2.77;;;;;;;9.03;100.00;102490.89;1778421;79;934502;-75
2021/03/19 02:19:06;;;;;;;4.83;2.60;;;;;;;9.10;100.00;102492.52;1778456;79;934484;-75
2021/03/19 02:22:21;;;;;;;2.73;2.07;;;;;;;9.12;100.00;102493.11;1778472;79;934504;-75
2021/03/19 02:25:26;;;;;;;3.90;2.37;;;;;;;9.12;100.00;102491.72;1753223;78;932533;-75
2021/03/19 02:28:32;;;;;;;3.13;2.30;;;;;;;9.14;100.00;102488.19;1775976;79;934376;-75
2021/03/19 02:31:12;;;;;;;3.12;2.10;;;;;;;9.03;100.00;102473.73;1766823;79;934563;-75
2021/03/19 02:33:49;;;;;;;3.27;2.43;;;;;;;9.00;100.00;102479.75;1778506;79;932322;-76
2021/03/19 02:36:22;;;;;;;2.80;2.37;;;;;;;9.00;100.00;102487.22;1766849;79;934510;-75
2021/03/19 02:38:52;;;;;;;3.50;2.60;;;;;;;8.99;100.00;102488.28;1778412;80;932533;-75
2021/03/19 02:41:24;;;;;;;3.50;2.50;;;;;;;9.01;100.00;102495.84;1778433;80;933402;-76
2021/03/19 02:43:54;;;;;;;4.17;3.23;;;;;;;8.98;100.00;102486.63;1778425;79;932457;-75
2021/03/19 02:46:24;;;;;;;3.73;2.77;;;;;;;9.00;100.00;102492.22;1778499;79;934344;-76
2021/03/19 02:48:53;;;;;;;4.00;3.10;;;;;;;9.08;100.00;102486.88;1778455;79;932712;-76
2021/03/19 02:51:23;;;;;;;3.90;2.87;;;;;;;9.06;100.00;102488.52;1778420;79;934443;-76
2021/03/19 02:53:53;;;;;;;4.47;3.00;;;;;;;9.06;100.00;102482.98;1778436;79;932600;-76
2021/03/19 02:56:23;;;;;;;4.20;2.80;;;;;;;9.06;100.00;102494.06;1778438;79;934528;-76
2021/03/19 02:58:53;;;;;;;4.83;2.90;;;;;;;9.01;100.00;102486.99;1778433;79;932375;-75
2021/03/19 03:01:22;;;;;;;4.20;2.50;;;;;;;9.05;100.00;102490.13;1778429;79;934426;-76
2021/03/19 03:03:52;;;;;;;3.97;2.40;;;;;;;9.00;100.00;102491.37;1778446;79;932677;-75
2021/03/19 03:06:22;;;;;;;2.97;2.37;;;;;;;9.04;100.00;102485.13;1778397;79;934465;-76
2021/03/19 03:08:53;;;;;;;3.43;2.53;;;;;;;9.04;100.00;102489.28;1778454;79;932716;-76
2021/03/19 03:11:23;;;;;;;3.70;2.47;;;;;;;9.05;100.00;102488.21;1778407;79;934386;-76
2021/03/19 03:13:53;;;;;;;5.20;2.73;;;;;;;9.06;100.00;102490.45;1778458;79;932311;-76
2021/03/19 03:16:24;;;;;;;3.70;2.57;;;;;;;9.02;100.00;102497.00;1778433;79;934367;-76
2021/03/19 03:18:53;;;;;;;4.13;3.07;;;;;;;9.01;100.00;102488.91;1778365;78;932816;-76
2021/03/19 03:21:23;;;;;;;3.73;2.37;;;;;;;8.97;100.00;102505.17;1778401;80;934534;-76
2021/03/19 03:23:53;;;;;;;3.23;2.00;;;;;;;8.98;100.00;102504.64;1778441;79;932854;-76
2021/03/19 03:26:40;;;;;;;3.77;3.03;;;;;;;8.95;100.00;102494.84;1721567;81;934397;-76
2021/03/19 03:29:11;;;;;;;2.83;2.17;;;;;;;8.99;100.00;102488.28;1710769;82;934458;-76
2021/03/19 03:31:42;;;;;;;1.97;1.70;;;;;;;8.98;100.00;102492.16;1722070;82;934424;-75
2021/03/19 03:34:13;;;;;;;2.13;1.63;;;;;;;8.95;100.00;102500.39;1710774;82;934658;-76
2021/03/19 03:36:43;;;;;;;2.20;1.80;;;;;;;8.97;100.00;102502.40;1721377;82;932603;-75
2021/03/19 03:39:15;;;;;;;2.70;2.10;;;;;;;8.96;100.00;102507.63;1711319;82;934582;-75
2021/03/19 03:41:45;;;;;;;2.97;2.17;;;;;;;8.98;100.00;102511.56;1722036;82;932732;-75
2021/03/19 03:44:17;;;;;;;2.23;1.90;;;;;;;8.95;100.00;102509.24;1710999;82;934566;-76
2021/03/19 03:46:48;;;;;;;3.50;2.07;;;;;;;8.96;100.00;102506.78;1721656;82;932924;-75
2021/03/19 03:49:19;;;;;;;1.83;1.60;;;;;;;8.92;100.00;102508.33;1710853;82;934773;-76
2021/03/19 03:51:49;;;;;;;1.47;1.37;;;;;;;8.93;100.00;102517.81;1721364;82;932665;-76
2021/03/19 03:54:20;;;;;;;1.57;1.20;;;;;;;8.92;100.00;102522.19;1710402;82;934541;-76
2021/03/19 03:56:50;;;;;;;1.70;1.60;;;;;;;8.91;100.00;102524.11;1722014;82;932530;-76
2021/03/19 03:59:20;;;;;;;1.40;1.23;;;;;;;8.86;100.00;102525.88;1757868;79;934460;-75
2021/03/19 04:01:52;;;;;;;1.92;1.20;;;;;;;8.95;100.00;102526.72;1778489;79;932588;-75
2021/03/19 04:04:21;;;;;;;1.67;1.40;;;;;;;8.92;100.00;102523.58;1736192;80;934469;-76
2021/03/19 04:06:51;;;;;;;1.50;1.20;;;;;;;8.87;100.00;102533.12;1778276;79;932427;-76
2021/03/19 04:09:21;;;;;;;2.17;1.10;;;;;;;8.91;100.00;102526.03;1765217;79;1053041;-76
2021/03/19 04:11:50;;;;;;;1.30;1.10;;;;;;;8.85;100.00;102525.06;1778426;79;934634;-76
2021/03/19 04:14:20;;;;;;;1.90;1.23;;;;;;;8.86;100.00;102523.11;1766768;79;934683;-76
2021/03/19 04:16:50;;;;;;;2.33;1.37;;;;;;;8.81;100.00;102526.61;1778416;79;932593;-76
2021/03/19 04:19:20;;;;;;;1.30;1.20;;;;;;;8.76;100.00;102526.98;1766560;78;934508;-76
2021/03/19 04:21:50;;;;;;;2.00;1.60;;;;;;;8.75;100.00;102535.84;1778382;79;932648;-76
2021/03/19 04:24:20;;;;;;;2.37;1.20;;;;;;;8.71;100.00;102540.69;1766702;79;934490;-76
2021/03/19 04:26:51;;;;;;;1.37;1.27;;;;;;;8.78;100.00;102541.44;1778428;79;932596;-75
2021/03/19 04:29:21;;;;;;;1.73;1.40;;;;;;;8.75;100.00;102540.53;1778373;79;934743;-75
2021/03/19 04:31:51;;;;;;;1.60;1.30;;;;;;;8.68;100.00;102548.94;1778424;79;932766;-75
2021/03/19 04:34:21;;;;;;;1.83;1.10;;;;;;;8.64;100.00;102544.37;1778396;79;934636;-76
2021/03/19 04:36:52;;;;;;;2.70;1.80;;;;;;;8.66;100.00;102545.00;1778447;79;932452;-75
2021/03/19 04:39:28;;;;;;;2.00;1.37;;;;;;;8.67;100.00;102545.31;1778429;78;933596;-75
2021/03/19 04:41:59;;;;;;;1.67;1.52;;;;;;;8.61;100.00;102540.69;1768965;79;933881;-75
2021/03/19 04:44:32;;;;;;;2.50;1.63;;;;;;;8.55;100.00;102544.93;1736199;80;934470;-75
2021/03/19 04:47:02;;;;;;;1.80;1.37;;;;;;;8.50;100.00;102551.16;1766732;79;933918;-75
2021/03/19 04:49:32;;;;;;;2.20;1.73;;;;;;;8.56;100.00;102550.22;1778380;79;934662;-75
2021/03/19 04:52:04;;;;;;;1.63;1.40;;;;;;;8.51;100.00;102554.78;1766822;79;934466;-75
2021/03/19 04:54:34;;;;;;;2.57;1.67;;;;;;;8.50;100.00;102552.55;1778369;79;934430;-76
2021/03/19 04:57:05;;;;;;;2.25;1.50;;;;;;;8.49;100.00;102561.92;1766721;79;934411;-76
2021/03/19 04:59:35;;;;;;;1.90;1.40;;;;;;;8.50;100.00;102562.77;1778354;79;934662;-76
2021/03/19 05:02:05;;;;;;;1.72;1.47;;;;;;;8.50;100.00;102567.78;1754988;79;933512;-76
2021/03/19 05:04:35;;;;;;;2.50;1.57;;;;;;;8.50;100.00;102569.70;1778418;80;933414;-76
2021/03/19 05:07:09;;;;;;;1.90;1.53;;;;;;;8.43;100.00;102576.67;1766860;79;933550;-75
2021/03/19 05:09:38;;;;;;;1.50;1.23;;;;;;;8.43;100.00;102578.63;1778338;79;934823;-76
2021/03/19 05:12:09;;;;;;;2.52;1.30;;;;;;;8.47;100.00;102588.16;1766807;79;934614;-76
2021/03/19 05:14:38;;;;;;;1.83;1.27;;;;;;;8.47;100.00;102590.94;1778342;80;934436;-76
2021/03/19 05:17:08;;;;;;;1.90;1.00;;;;;;;8.43;100.00;102593.86;1766812;79;933396;-76
2021/03/19 05:19:38;;;;;;;3.10;1.80;;;;;;;8.44;100.00;102592.75;1778473;79;934395;-76
2021/03/19 05:22:08;;;;;;;1.60;1.20;;;;;;;8.44;100.00;102592.75;1766630;78;934489;-76
2021/03/19 05:24:38;;;;;;;1.53;1.27;;;;;;;8.47;100.00;102596.47;1778348;79;934431;-76
2021/03/19 05:27:09;;;;;;;1.73;1.10;;;;;;;8.38;100.00;102592.30;1766788;79;934419;-76
2021/03/19 05:29:38;;;;;;;2.57;1.50;;;;;;;8.41;100.00;102598.23;1778370;80;934705;-76
2021/03/19 05:32:08;;;;;;;1.92;1.10;;;;;;;8.43;100.00;102599.39;1766960;79;934706;-76
2021/03/19 05:34:39;;;;;;;1.40;1.13;;;;;;;8.36;100.00;102597.20;1778433;80;934400;-76
2021/03/19 05:37:08;;;;;;;2.10;1.25;;;;;;;8.40;100.00;102603.45;1766894;79;934637;-76
2021/03/19 05:39:38;;;;;;;1.50;1.20;;;;;;;8.43;100.00;102611.28;1778419;79;934577;-76
2021/03/19 05:42:16;;;;;;;1.30;1.20;;;;;;;8.36;100.00;102605.52;1766913;79;934489;-75
2021/03/19 05:44:50;;;;;;;1.77;1.27;;;;;;;8.42;100.00;102608.23;1778499;79;932562;-76
2021/03/19 05:47:21;;;;;;;1.67;1.00;;;;;;;8.35;100.00;102602.42;1766790;79;934617;-75
2021/03/19 05:49:54;;;;;;;1.20;1.00;;;;;;;8.39;100.00;102614.20;1778477;80;932744;-76
2021/03/19 05:52:27;;;;;;;1.10;0.90;;;;;;;8.33;100.00;102609.59;1778450;79;934518;-75
2021/03/19 05:54:57;;;;;;;1.13;0.80;;;;;;;8.37;100.00;102610.84;1766888;79;933425;-76
2021/03/19 05:57:31;;;;;;;2.03;0.90;;;;;;;8.40;100.00;102613.67;1778527;79;934566;-75
2021/03/19 06:00:02;;;;;;;1.83;0.93;;;;;;;8.34;100.00;102618.75;1766823;79;934536;-76
2021/03/19 06:02:34;;;;;;;1.53;0.90;;;;;;;8.38;100.00;102625.53;1778392;80;933464;-75
2021/03/19 06:05:14;;;;;;;2.35;1.20;;;;;;;8.39;100.00;102629.97;1766763;79;934485;-76
2021/03/19 06:07:51;;;;;;;1.97;1.20;;;;;;;8.41;100.00;102639.77;1778500;79;932616;-75
2021/03/19 06:10:29;;;;;;;1.47;1.20;;;;;;;8.38;100.00;102643.53;1778496;79;934476;-75
2021/03/19 06:13:14;;;;;;;1.22;1.00;;;;;;;8.39;100.00;102648.82;1766735;79;933599;-75
2021/03/19 06:15:47;;;;;;;1.17;1.00;;;;;;;8.38;100.00;102654.61;1778382;79;932780;-75
2021/03/19 06:18:27;;;;;;;1.37;0.97;;;;;;;8.37;100.00;102662.06;1766808;79;934571;-75
2021/03/19 06:21:02;;;;;;;1.07;0.97;;;;;;;8.36;100.00;102667.81;1766741;80;934467;-75
2021/03/19 06:23:35;;;;;;;1.97;1.00;;;;;;;8.34;100.00;102671.36;1778304;77;933376;-75
2021/03/19 06:26:08;;;;;;;1.17;1.07;;;;;;;8.34;100.00;102678.28;1766911;79;933337;-75
2021/03/19 06:28:40;;;;;;;1.67;1.17;;;;;;;8.32;100.00;102677.65;1778394;79;934669;-75
2021/03/19 06:31:23;;;;;;;1.40;1.22;;;;;;;8.31;100.00;102680.95;1766921;79;933318;-75
2021/03/19 06:34:07;;;;;;;1.20;1.10;;;;;;;8.33;100.00;102686.27;1778478;79;932823;-76
2021/03/19 06:36:57;;;;;;;0.80;0.80;;;;;;;8.40;100.00;102689.83;1778524;79;934373;-76
2021/03/19 06:39:30;;;;;;;1.67;1.10;;;;;;;8.35;100.00;102686.88;1778631;79;933610;-75
2021/03/19 06:42:08;;;;;;;1.35;1.20;;;;;;;8.36;100.00;102680.27;1766776;79;934333;-76
2021/03/19 06:44:38;;;;;;;1.80;1.00;;;;;;;8.39;100.00;102683.97;1778546;79;934466;-76
2021/03/19 06:47:10;;;;;;;1.63;0.90;;;;;;;8.42;100.00;102687.16;1766937;79;934337;-77
2021/03/19 06:49:53;;;;;;;1.93;1.13;;;;;;;8.37;100.00;102691.14;1778351;78;934410;-78
2021/03/19 06:52:28;;;;;;;0.80;0.80;;;;;;;8.32;100.00;102698.42;1778381;79;934509;-77
2021/03/19 06:55:00;;;;;;;1.77;1.00;;;;;;;8.34;100.00;102690.75;1766844;79;934477;-77
2021/03/19 06:57:32;;;;;;;1.00;0.90;;;;;;;8.36;100.00;102695.50;1778494;79;934478;-75
2021/03/19 07:00:04;;;;;;;1.13;1.03;;;;;;;8.30;100.00;102685.35;1766823;79;934345;-76
2021/03/19 07:03:00;;;;;;;1.60;1.10;;;;;;;8.38;100.00;102694.22;1778440;79;934747;-76
2021/03/19 07:05:42;;;;;;;1.73;1.10;;;;;;;8.27;100.00;102685.75;1775465;79;934708;-75
2021/03/19 07:08:36;;;;;;;2.00;1.30;;;;;;;8.30;100.00;102695.05;1766888;79;933447;-76
2021/03/19 07:11:14;;;;;;;1.65;1.12;;;;;;;8.34;100.00;102707.36;1766901;80;934462;-76
2021/03/19 07:13:56;;;;;;;2.10;1.50;;;;;;;8.29;100.00;102714.07;1778437;79;932477;-76
2021/03/19 07:16:29;;;;;;;1.83;1.60;;;;;;;8.27;100.00;102720.35;1778502;79;934423;-76
2021/03/19 07:19:18;;;;;;;1.40;1.30;;;;;;;8.28;100.00;102723.44;1766838;78;934566;-76
2021/03/19 07:22:04;;;;;;;2.20;1.83;;;;;;;8.40;100.00;102721.14;1778543;79;932588;-77
2021/03/19 07:25:01;;;;;;;1.40;1.30;;;;;;;8.31;100.00;102727.17;1778372;77;934487;-76
2021/03/19 07:27:38;;;;;;;1.40;1.30;;;;;;;8.25;100.00;102730.29;1764776;79;934599;-76
2021/03/19 07:30:18;;;;;;;1.30;1.20;;;;;;;8.31;100.00;102733.56;1766963;79;934338;-76
2021/03/19 07:33:22;;;;;;;1.40;1.30;;;;;;;8.31;100.00;102733.56;1778500;79;932501;-77
2021/03/19 07:36:18;;;;;;;2.80;1.47;;;;;;;8.34;100.00;102731.75;1778490;79;932821;-77
2021/03/19 07:39:20;;;;;;;1.70;1.57;;;;;;;8.40;100.00;102735.52;1768211;79;932801;-77
2021/03/19 07:42:03;;;;;;;2.23;1.67;;;;;;;8.38;100.00;102745.98;1735654;79;932685;-77
2021/03/19 07:44:37;;;;;;;1.67;1.40;;;;;;;8.48;100.00;102749.08;1778297;79;935033;-77
2021/03/19 07:47:42;;;;;;;2.27;1.60;;;;;;;8.40;100.00;102751.59;1766868;79;934326;-77
2021/03/19 07:50:35;;;;;;;2.07;1.87;;;;;;;8.39;100.00;102760.97;1743360;79;934682;-77
2021/03/19 07:53:38;;;;;;;1.97;1.60;;;;;;;8.56;100.00;102759.88;1766811;79;934641;-77
2021/03/19 07:56:18;;;;;;;3.03;1.70;;;;;;;8.66;100.00;102754.16;1766782;79;934436;-76
2021/03/19 07:58:56;;;;;;;3.20;1.60;;;;;;;8.72;100.00;102752.42;1778470;79;932644;-76
2021/03/19 08:01:33;;;;;;;2.30;1.40;;;;;;;8.62;100.00;102755.69;1778432;79;934469;-76
2021/03/19 08:04:10;;;;;;;3.60;1.60;;;;;;;8.68;100.00;102756.72;1767010;80;934440;-76
2021/03/19 08:06:45;;;;;;;2.43;1.40;;;;;;;9.07;100.00;102755.50;1778479;80;934587;-76
2021/03/19 08:09:20;;;;;;;2.83;1.77;;;;;;;9.35;100.00;102760.52;1766912;79;934757;-76
2021/03/19 08:11:54;;;;;;;2.70;1.60;;;;;;;9.04;100.00;102758.17;1778058;79;932427;-77
2021/03/19 08:14:46;;;;;;;1.30;1.20;;;;;;;9.06;100.00;102762.97;1778437;79;934540;-77
2021/03/19 08:17:27;;;;;;;1.57;1.17;;;;;;;9.20;100.00;102758.11;1766860;79;934640;-77
2021/03/19 08:20:03;;;;;;;2.43;0.90;;;;;;;9.39;100.00;102763.98;1766692;79;934648;-76
2021/03/19 08:22:36;;;;;;;2.13;1.30;;;;;;;9.30;100.00;102769.53;1778594;78;934760;-77
2021/03/19 08:25:09;;;;;;;1.80;1.17;;;;;;;9.32;100.00;102755.44;1766883;78;934550;-77
2021/03/19 08:27:44;;;;;;;3.27;1.40;;;;;;;9.27;100.00;102759.44;1778319;79;934660;-77
2021/03/19 08:30:25;;;;;;;2.05;1.10;;;;;;;9.17;100.00;102755.80;1766773;79;934493;-77
2021/03/19 08:33:03;;;;;;;1.73;1.00;;;;;;;9.23;100.00;102760.98;1778602;79;932664;-77
2021/03/19 08:35:37;;;;;;;1.87;1.10;;;;;;;9.34;100.00;102753.27;1778589;79;934416;-77
2021/03/19 08:38:19;;;;;;;2.02;1.10;;;;;;;9.14;100.00;102754.88;1766846;79;942262;-76
2021/03/19 08:40:52;;;;;;;2.13;1.13;;;;;;;9.22;100.00;102757.89;1778536;80;932569;-77
2021/03/19 08:43:25;;;;;;;1.33;1.23;;;;;;;9.41;100.00;102757.66;1778418;79;934393;-77
2021/03/19 08:46:03;;;;;;;1.93;1.60;;;;;;;9.31;100.00;102757.90;1778462;79;932796;-77
2021/03/19 08:48:36;;;;;;;2.53;1.47;;;;;;;9.82;100.00;102767.20;1778508;79;934582;-78
2021/03/19 08:51:19;;;;;;;3.98;1.85;;;;;;;9.73;100.00;102766.67;1766723;79;937581;-77
2021/03/19 08:54:18;;;;;;;4.83;1.90;;;;;;;9.53;100.00;102766.08;1778618;79;932589;-77
2021/03/19 08:56:50;;;;;;;2.80;1.90;;;;;;;9.54;100.00;102768.59;1778493;79;932663;-77
2021/03/19 08:59:49;;;;;;;2.70;1.70;;;;;;;9.40;100.00;102775.94;1766835;79;934539;-78
2021/03/19 09:02:54;;;;;;;2.77;1.70;;;;;;;9.49;100.00;102780.10;1766878;79;934635;-77
2021/03/19 09:05:31;;;;;;;3.27;1.67;;;;;;;9.89;100.00;102782.67;1778600;79;934487;-77
2021/03/19 09:08:29;;;;;;;3.40;1.70;;;;;;;9.48;100.00;102782.56;1766996;79;934506;-77
2021/03/19 09:11:19;;;;;;;5.03;1.87;;;;;;;9.75;100.00;102787.27;1744571;79;934507;-77
2021/03/19 09:14:19;;;;;;;2.93;1.50;;;;;;;9.73;100.00;102790.80;1778634;79;932655;-77
2021/03/19 09:16:55;;;;;;;1.93;1.40;;;;;;;9.53;100.00;102793.81;1778651;79;932605;-76
2021/03/19 09:20:01;;;;;;;2.13;1.40;;;;;;;9.80;100.00;102796.56;1778639;80;934624;-76
2021/03/19 09:22:45;;;;;;;2.13;1.60;;;;;;;9.72;100.00;102799.66;1723305;79;934431;-76
2021/03/19 09:25:41;;;;;;;2.52;1.67;;;;;;;10.15;100.00;102808.39;1767134;78;933823;-76
2021/03/19 09:28:27;;;;;;;2.42;1.65;;;;;;;10.17;100.00;102809.05;1766976;78;936637;-76
2021/03/19 09:31:01;;;;;;;3.10;1.80;;;;;;;10.35;100.00;102814.03;1766785;80;935477;-76
2021/03/19 09:33:56;;;;;;;3.33;1.57;;;;;;;10.43;100.00;102815.62;1778549;80;936793;-76
2021/03/19 09:36:53;;;;;;;2.77;1.70;;;;;;;10.24;100.00;102817.59;1778483;79;936559;-77
2021/03/19 09:40:05;;;;;;;3.03;1.50;;;;;;;10.25;100.00;102819.83;1778447;79;936938;-77
2021/03/19 09:42:53;;;;;;;4.07;2.47;;;;;;;10.09;100.00;102831.02;1778414;79;936722;-77
2021/03/19 09:45:27;;;;;;;3.50;2.40;;;;;;;10.23;100.00;102835.86;1778462;79;936541;-77
2021/03/19 09:48:22;;;;;;;1.60;1.30;;;;;;;10.21;100.00;102827.78;1766882;79;936559;-77
2021/03/19 09:51:03;;;;;;;2.93;1.60;;;;;;;10.23;100.00;102833.94;1778642;79;934787;-77
2021/03/19 09:53:39;;;;;;;4.17;1.77;;;;;;;10.56;100.00;102830.70;1778604;79;936679;-77
2021/03/19 09:56:20;;;;;;;3.02;1.47;;;;;;;10.39;100.00;102834.70;1767027;79;936664;-77
2021/03/19 09:58:53;;;;;;;2.67;1.43;;;;;;;10.47;100.00;102832.97;1778501;80;934637;-77
2021/03/19 10:01:28;;;;;;;2.10;1.30;;;;;;;10.62;100.00;102830.27;1778591;79;936544;-77
2021/03/19 10:04:01;;;;;;;2.70;1.20;;;;;;;10.59;100.00;102829.38;1766862;79;936698;-77
2021/03/19 10:06:36;;;;;;;3.90;1.67;;;;;;;10.72;100.00;102834.72;1778648;79;936716;-76
2021/03/19 10:09:13;;;;;;;3.92;1.50;;;;;;;10.80;100.00;102840.79;1766974;79;936618;-77
2021/03/19 10:11:58;;;;;;;3.57;1.57;;;;;;;10.90;100.00;102839.67;1778613;79;934744;-77
2021/03/19 10:14:32;;;;;;;4.20;1.47;;;;;;;11.05;100.00;102833.63;1778637;79;936889;-76
2021/03/19 10:17:24;;;;;;;2.83;1.63;;;;;;;11.05;100.00;102846.14;1766899;79;936761;-77
2021/03/19 10:19:58;;;;;;;11.13;1.80;;;;;;;11.05;100.00;102846.14;1778552;79;934541;-77
2021/03/19 10:22:48;;;;;;;2.90;1.10;;;;;;;10.75;100.00;102839.26;1778463;79;938862;-77
2021/03/19 10:25:32;;;;;;;3.30;1.60;;;;;;;10.90;100.00;102838.28;1766830;79;936746;-76
2021/03/19 10:28:04;;;;;;;5.22;1.35;;;;;;;10.64;100.00;102837.31;1766673;78;936718;-76
2021/03/19 10:30:37;;;;;;;1.60;1.00;;;;;;;11.13;100.00;102836.05;1778471;79;937005;-76
2021/03/19 10:33:12;;;;;;;3.73;2.00;;;;;;;10.84;100.00;102833.66;1766855;80;936736;-76
2021/03/19 10:35:46;;;;;;;4.30;1.40;;;;;;;10.70;100.00;102841.90;1778469;79;934689;-77
2021/03/19 10:38:22;;;;;;;2.87;1.20;;;;;;;10.98;100.00;102840.41;1766978;79;936576;-77
2021/03/19 10:40:56;;;;;;;2.43;1.20;;;;;;;10.64;100.00;102844.26;1778504;80;934730;-77
2021/03/19 10:43:29;;;;;;;3.20;1.10;;;;;;;10.64;100.00;102844.26;1778461;79;936621;-76
2021/03/19 10:46:02;;;;;;;3.07;1.10;;;;;;;11.03;100.00;102852.51;1766841;79;936628;-76
2021/03/19 10:48:40;;;;;;;3.60;1.50;;;;;;;11.08;100.00;102843.45;1778495;80;936533;-76
2021/03/19 10:51:16;;;;;;;2.83;1.30;;;;;;;11.10;100.00;102855.16;1766938;79;936631;-76
2021/03/19 10:53:59;;;;;;;4.17;1.23;;;;;;;11.32;100.00;102849.32;1778495;80;934662;-76
2021/03/19 10:56:30;;;;;;;3.00;1.20;;;;;;;11.02;100.00;102852.73;1778466;79;936545;-76
2021/03/19 10:59:16;;;;;;;2.57;0.97;;;;;;;11.31;100.00;102843.45;1766773;79;936623;-76
2021/03/19 11:01:47;;;;;;;2.53;1.20;;;;;;;11.33;100.00;102839.89;1778459;79;934692;-76
2021/03/19 11:04:33;;;;;;;2.63;1.13;;;;;;;11.26;100.00;102839.14;1766736;79;935546;-76
2021/03/19 11:07:21;;;;;;;3.37;1.17;;;;;;;11.20;100.00;102838.73;1766754;80;936671;-76
2021/03/19 11:10:12;;;;;;;0.97;0.80;;;;;;;11.26;100.00;102841.92;1777318;79;934652;-76
2021/03/19 11:12:46;;;;;;;1.83;0.80;;;;;;;11.47;100.00;102848.85;1778470;79;934660;-76
2021/03/19 11:15:19;;;;;;;2.67;0.70;;;;;;;11.73;100.00;102848.34;1766995;79;936560;-76
2021/03/19 11:18:09;;;;;;;3.37;1.17;;;;;;;11.83;100.00;102847.19;1778422;79;934783;-76
2021/03/19 11:20:39;;;;;;;3.73;1.27;;;;;;;11.88;100.00;102851.48;1778496;79;936845;-77
2021/03/19 11:23:25;;;;;;;1.47;1.00;;;;;;;11.55;100.00;102860.44;1766759;79;935452;-76
2021/03/19 11:25:57;;;;;;;4.13;1.17;;;;;;;11.63;100.00;102868.44;1778467;79;934784;-77
2021/03/19 11:28:32;;;;;;;2.00;0.90;;;;;;;11.73;100.00;102874.80;1778513;79;936593;-77
2021/03/19 11:31:25;;;;;;;3.83;1.00;;;;;;;11.88;100.00;102872.38;1766717;78;936796;-76
2021/03/19 11:34:01;;;;;;;3.67;1.00;;;;;;;11.91;100.00;102864.91;1778451;80;934742;-76
2021/03/19 11:36:49;;;;;;;2.23;0.90;;;;;;;11.72;100.00;102873.13;1778410;79;936721;-76
2021/03/19 11:39:25;;;;;;;4.13;1.00;;;;;;;11.67;100.00;102872.97;1766718;79;936514;-76
2021/03/19 11:41:55;;;;;;;4.53;1.10;;;;;;;11.48;100.00;102872.24;1778403;79;934658;-76
2021/03/19 11:44:25;;;;;;;2.02;0.88;;;;;;;11.48;100.00;102872.24;1778233;79;936622;-76
2021/03/19 11:46:54;;;;;;;4.10;0.87;;;;;;;11.32;100.00;102872.97;1778450;79;934377;-77
2021/03/19 11:49:27;;;;;;;2.60;1.00;;;;;;;11.30;100.00;102877.91;1778375;79;936683;-77
2021/03/19 11:51:57;;;;;;;2.47;0.87;;;;;;;11.55;100.00;102877.13;1766763;79;939455;-77
2021/03/19 11:54:27;;;;;;;3.40;1.03;;;;;;;11.71;100.00;102876.96;1778375;79;936987;-77
2021/03/19 11:56:57;;;;;;;5.47;1.37;;;;;;;11.91;100.00;102872.42;1766764;80;936801;-76
2021/03/19 11:59:27;;;;;;;1.77;0.77;;;;;;;11.95;100.00;102869.44;1778409;79;936609;-75
2021/03/19 12:01:59;;;;;;;2.33;1.03;;;;;;;11.94;100.00;102878.34;1767408;79;936738;-77